sensor_id;sensor_type;location;lat;lon;timestamp;temperature;humidity
20829;DHT22;10575;50.124;8.582;2024-02-23T00:01:59;8.90;99.90
20829;DHT22;10575;50.124;8.582;2024-02-23T00:04:25;8.80;99.90
20829;DHT22;10575;50.124;8.582;2024-02-23T00:06:50;8.50;99.90
20829;DHT22;10575;50.124;8.582;2024-02-23T00:09:16;8.40;99.90
20829;DHT22;10575;50.124;8.582;2024-02-23T00:11:41;8.30;99.90
20829;DHT22;10575;50.124;8.582;2024-02-23T00:14:11;8.30;99.90
20829;DHT22;10575;50.124;8.582;2024-02-23T00:16:40;8.40;99.90
20829;DHT22;10575;50.124;8.582;2024-02-23T00:19:08;8.40;99.90
20829;DHT22;10575;50.124;8.582;2024-02-23T00:21:36;8.30;99.90
20829;DHT22;10575;50.124;8.582;2024-02-23T00:24:02;8.30;99.90
20829;DHT22;10575;50.124;8.582;2024-02-23T00:26:27;8.30;99.90
20829;DHT22;10575;50.124;8.582;2024-02-23T00:28:54;8.40;99.90
20829;DHT22;10575;50.124;8.582;2024-02-23T00:31:19;8.50;99.90
20829;DHT22;10575;50.124;8.582;2024-02-23T00:33:45;8.50;99.90
20829;DHT22;10575;50.124;8.582;2024-02-23T00:36:10;8.60;99.90
20829;DHT22;10575;50.124;8.582;2024-02-23T00:38:36;8.60;99.90
20829;DHT22;10575;50.124;8.582;2024-02-23T00:41:02;8.60;99.90
20829;DHT22;10575;50.124;8.582;2024-02-23T00:43:27;8.60;99.90
20829;DHT22;10575;50.124;8.582;2024-02-23T00:45:55;8.60;99.90
20829;DHT22;10575;50.124;8.582;2024-02-23T00:48:20;8.60;99.90
20829;DHT22;10575;50.124;8.582;2024-02-23T00:50:46;8.40;99.90
20829;DHT22;10575;50.124;8.582;2024-02-23T00:53:12;8.50;99.90
20829;DHT22;10575;50.124;8.582;2024-02-23T00:55:37;8.40;99.90
20829;DHT22;10575;50.124;8.582;2024-02-23T00:58:03;8.40;99.90
20829;DHT22;10575;50.124;8.582;2024-02-23T01:00:29;8.40;99.90
20829;DHT22;10575;50.124;8.582;2024-02-23T01:02:54;8.30;99.90
20829;DHT22;10575;50.124;8.582;2024-02-23T01:05:20;8.40;99.90
20829;DHT22;10575;50.124;8.582;2024-02-23T01:07:46;8.40;99.90
20829;DHT22;10575;50.124;8.582;2024-02-23T01:10:11;8.40;99.90
20829;DHT22;10575;50.124;8.582;2024-02-23T01:12:37;8.40;99.90
20829;DHT22;10575;50.124;8.582;2024-02-23T01:15:03;8.40;99.90
20829;DHT22;10575;50.124;8.582;2024-02-23T01:17:28;8.30;99.90
20829;DHT22;10575;50.124;8.582;2024-02-23T01:19:54;8.20;99.90
20829;DHT22;10575;50.124;8.582;2024-02-23T01:22:19;8.20;99.90
20829;DHT22;10575;50.124;8.582;2024-02-23T01:24:45;8.10;99.90
20829;DHT22;10575;50.124;8.582;2024-02-23T01:27:10;7.90;99.90
20829;DHT22;10575;50.124;8.582;2024-02-23T01:29:36;7.60;99.90
20829;DHT22;10575;50.124;8.582;2024-02-23T01:32:01;7.40;99.90
20829;DHT22;10575;50.124;8.582;2024-02-23T01:34:29;7.30;99.90
20829;DHT22;10575;50.124;8.582;2024-02-23T01:36:55;7.30;99.90
20829;DHT22;10575;50.124;8.582;2024-02-23T01:39:20;7.30;99.90
20829;DHT22;10575;50.124;8.582;2024-02-23T01:41:46;7.30;99.90
20829;DHT22;10575;50.124;8.582;2024-02-23T01:44:11;7.30;99.90
20829;DHT22;10575;50.124;8.582;2024-02-23T01:46:39;7.30;99.90
20829;DHT22;10575;50.124;8.582;2024-02-23T01:49:05;7.20;99.90
20829;DHT22;10575;50.124;8.582;2024-02-23T01:51:33;7.10;99.90
20829;DHT22;10575;50.124;8.582;2024-02-23T01:53:59;7.10;99.90
20829;DHT22;10575;50.124;8.582;2024-02-23T01:56:25;7.10;99.90
20829;DHT22;10575;50.124;8.582;2024-02-23T01:58:51;7.10;99.90
20829;DHT22;10575;50.124;8.582;2024-02-23T02:01:17;7.00;99.90
20829;DHT22;10575;50.124;8.582;2024-02-23T02:03:43;6.90;99.90
20829;DHT22;10575;50.124;8.582;2024-02-23T02:06:10;7.00;99.90
20829;DHT22;10575;50.124;8.582;2024-02-23T02:08:39;7.00;99.90
20829;DHT22;10575;50.124;8.582;2024-02-23T02:11:05;6.90;99.90
20829;DHT22;10575;50.124;8.582;2024-02-23T02:13:31;6.90;99.90
20829;DHT22;10575;50.124;8.582;2024-02-23T02:16:00;6.90;99.90
20829;DHT22;10575;50.124;8.582;2024-02-23T02:18:26;6.90;99.90
20829;DHT22;10575;50.124;8.582;2024-02-23T02:20:54;6.90;99.90
20829;DHT22;10575;50.124;8.582;2024-02-23T02:23:19;6.90;99.90
20829;DHT22;10575;50.124;8.582;2024-02-23T02:25:45;6.90;99.90
20829;DHT22;10575;50.124;8.582;2024-02-23T02:28:11;7.00;99.90
20829;DHT22;10575;50.124;8.582;2024-02-23T02:30:37;7.00;99.90
20829;DHT22;10575;50.124;8.582;2024-02-23T02:33:03;7.00;99.90
20829;DHT22;10575;50.124;8.582;2024-02-23T02:35:28;6.90;99.90
20829;DHT22;10575;50.124;8.582;2024-02-23T02:37:54;6.80;99.90
20829;DHT22;10575;50.124;8.582;2024-02-23T02:40:19;6.70;99.90
20829;DHT22;10575;50.124;8.582;2024-02-23T02:42:45;6.70;99.90
20829;DHT22;10575;50.124;8.582;2024-02-23T02:45:10;6.70;99.90
20829;DHT22;10575;50.124;8.582;2024-02-23T02:47:36;6.60;99.90
20829;DHT22;10575;50.124;8.582;2024-02-23T02:50:02;6.70;99.90
20829;DHT22;10575;50.124;8.582;2024-02-23T02:52:28;6.60;99.90
20829;DHT22;10575;50.124;8.582;2024-02-23T02:54:53;6.70;99.90
20829;DHT22;10575;50.124;8.582;2024-02-23T02:57:19;6.90;99.90
20829;DHT22;10575;50.124;8.582;2024-02-23T02:59:45;6.90;99.90
20829;DHT22;10575;50.124;8.582;2024-02-23T03:02:11;7.00;99.90
20829;DHT22;10575;50.124;8.582;2024-02-23T03:04:46;7.10;99.90
20829;DHT22;10575;50.124;8.582;2024-02-23T03:07:11;7.20;99.90
20829;DHT22;10575;50.124;8.582;2024-02-23T03:09:37;7.20;99.90
20829;DHT22;10575;50.124;8.582;2024-02-23T03:12:03;7.20;99.90
20829;DHT22;10575;50.124;8.582;2024-02-23T03:14:28;7.20;99.90
20829;DHT22;10575;50.124;8.582;2024-02-23T03:16:54;7.30;99.90
20829;DHT22;10575;50.124;8.582;2024-02-23T03:19:20;7.30;99.90
20829;DHT22;10575;50.124;8.582;2024-02-23T03:21:47;7.30;99.90
20829;DHT22;10575;50.124;8.582;2024-02-23T03:24:13;7.30;99.90
20829;DHT22;10575;50.124;8.582;2024-02-23T03:26:38;7.40;99.90
20829;DHT22;10575;50.124;8.582;2024-02-23T03:29:04;7.30;99.90
20829;DHT22;10575;50.124;8.582;2024-02-23T03:31:29;7.40;99.90
20829;DHT22;10575;50.124;8.582;2024-02-23T03:33:55;7.40;99.90
20829;DHT22;10575;50.124;8.582;2024-02-23T03:36:20;7.40;99.90
20829;DHT22;10575;50.124;8.582;2024-02-23T03:38:48;7.40;99.90
20829;DHT22;10575;50.124;8.582;2024-02-23T03:41:14;7.30;99.90
20829;DHT22;10575;50.124;8.582;2024-02-23T03:43:39;7.30;99.90
20829;DHT22;10575;50.124;8.582;2024-02-23T03:46:06;7.20;99.90
20829;DHT22;10575;50.124;8.582;2024-02-23T03:48:32;7.20;99.90
20829;DHT22;10575;50.124;8.582;2024-02-23T03:50:57;7.10;99.90
20829;DHT22;10575;50.124;8.582;2024-02-23T03:53:23;7.20;99.90
20829;DHT22;10575;50.124;8.582;2024-02-23T03:55:48;7.20;99.90
20829;DHT22;10575;50.124;8.582;2024-02-23T03:58:14;7.30;99.90
20829;DHT22;10575;50.124;8.582;2024-02-23T04:00:40;7.20;99.90
20829;DHT22;10575;50.124;8.582;2024-02-23T04:03:05;7.20;99.90
20829;DHT22;10575;50.124;8.582;2024-02-23T04:05:31;7.20;99.90
20829;DHT22;10575;50.124;8.582;2024-02-23T04:07:57;7.20;99.90
20829;DHT22;10575;50.124;8.582;2024-02-23T04:10:22;7.30;99.90
20829;DHT22;10575;50.124;8.582;2024-02-23T04:12:48;7.30;99.90
20829;DHT22;10575;50.124;8.582;2024-02-23T04:15:13;7.40;99.90
20829;DHT22;10575;50.124;8.582;2024-02-23T04:17:39;7.40;99.90
20829;DHT22;10575;50.124;8.582;2024-02-23T04:20:08;7.40;99.90
20829;DHT22;10575;50.124;8.582;2024-02-23T04:22:37;7.50;99.90
20829;DHT22;10575;50.124;8.582;2024-02-23T04:25:03;7.40;99.90
20829;DHT22;10575;50.124;8.582;2024-02-23T04:27:31;7.40;99.90
20829;DHT22;10575;50.124;8.582;2024-02-23T04:29:56;7.50;99.90
20829;DHT22;10575;50.124;8.582;2024-02-23T04:32:22;7.40;99.90
20829;DHT22;10575;50.124;8.582;2024-02-23T04:34:48;7.50;99.90
20829;DHT22;10575;50.124;8.582;2024-02-23T04:37:14;7.50;99.90
20829;DHT22;10575;50.124;8.582;2024-02-23T04:39:39;7.50;99.90
20829;DHT22;10575;50.124;8.582;2024-02-23T04:42:07;7.50;99.90
20829;DHT22;10575;50.124;8.582;2024-02-23T04:44:34;7.50;99.90
20829;DHT22;10575;50.124;8.582;2024-02-23T04:47:00;7.40;99.90
20829;DHT22;10575;50.124;8.582;2024-02-23T04:49:25;7.40;99.90
20829;DHT22;10575;50.124;8.582;2024-02-23T04:51:51;7.40;99.90
20829;DHT22;10575;50.124;8.582;2024-02-23T04:54:16;7.30;99.90
20829;DHT22;10575;50.124;8.582;2024-02-23T04:56:42;7.30;99.90
20829;DHT22;10575;50.124;8.582;2024-02-23T04:59:07;7.20;99.90
20829;DHT22;10575;50.124;8.582;2024-02-23T05:01:36;7.20;99.90
20829;DHT22;10575;50.124;8.582;2024-02-23T05:04:03;7.10;99.90
20829;DHT22;10575;50.124;8.582;2024-02-23T05:06:29;7.00;99.90
20829;DHT22;10575;50.124;8.582;2024-02-23T05:08:54;7.10;99.90
20829;DHT22;10575;50.124;8.582;2024-02-23T05:11:20;7.10;99.90
20829;DHT22;10575;50.124;8.582;2024-02-23T05:13:46;7.10;99.90
20829;DHT22;10575;50.124;8.582;2024-02-23T05:16:14;7.00;99.90
20829;DHT22;10575;50.124;8.582;2024-02-23T05:18:39;7.00;99.90
20829;DHT22;10575;50.124;8.582;2024-02-23T05:21:06;7.00;99.90
20829;DHT22;10575;50.124;8.582;2024-02-23T05:23:31;6.90;99.90
20829;DHT22;10575;50.124;8.582;2024-02-23T05:25:57;6.70;99.90
20829;DHT22;10575;50.124;8.582;2024-02-23T05:28:22;6.60;99.90
20829;DHT22;10575;50.124;8.582;2024-02-23T05:30:47;6.40;99.90
20829;DHT22;10575;50.124;8.582;2024-02-23T05:33:13;6.20;99.90
20829;DHT22;10575;50.124;8.582;2024-02-23T05:35:38;6.20;99.90
20829;DHT22;10575;50.124;8.582;2024-02-23T05:38:04;6.10;99.90
20829;DHT22;10575;50.124;8.582;2024-02-23T05:40:31;6.00;99.90
20829;DHT22;10575;50.124;8.582;2024-02-23T05:42:58;5.90;99.90
20829;DHT22;10575;50.124;8.582;2024-02-23T05:45:23;5.80;99.90
20829;DHT22;10575;50.124;8.582;2024-02-23T05:47:49;5.70;99.90
20829;DHT22;10575;50.124;8.582;2024-02-23T05:50:14;5.70;99.90
20829;DHT22;10575;50.124;8.582;2024-02-23T05:52:40;5.70;99.90
20829;DHT22;10575;50.124;8.582;2024-02-23T05:55:06;5.70;99.90
20829;DHT22;10575;50.124;8.582;2024-02-23T05:57:31;5.70;99.90
20829;DHT22;10575;50.124;8.582;2024-02-23T05:59:57;5.80;99.90
20829;DHT22;10575;50.124;8.582;2024-02-23T06:02:22;5.70;99.90
20829;DHT22;10575;50.124;8.582;2024-02-23T06:04:48;5.70;99.90
20829;DHT22;10575;50.124;8.582;2024-02-23T06:07:14;5.80;99.90
20829;DHT22;10575;50.124;8.582;2024-02-23T06:09:43;5.90;99.90
20829;DHT22;10575;50.124;8.582;2024-02-23T06:12:09;5.90;99.90
20829;DHT22;10575;50.124;8.582;2024-02-23T06:14:35;6.00;99.90
20829;DHT22;10575;50.124;8.582;2024-02-23T06:17:01;6.10;99.90
20829;DHT22;10575;50.124;8.582;2024-02-23T06:19:26;6.20;99.90
20829;DHT22;10575;50.124;8.582;2024-02-23T06:21:52;6.30;99.90
20829;DHT22;10575;50.124;8.582;2024-02-23T06:24:18;6.50;99.90
20829;DHT22;10575;50.124;8.582;2024-02-23T06:26:44;6.50;99.90
20829;DHT22;10575;50.124;8.582;2024-02-23T06:29:11;6.60;99.90
20829;DHT22;10575;50.124;8.582;2024-02-23T06:31:38;6.60;99.90
20829;DHT22;10575;50.124;8.582;2024-02-23T06:34:05;6.70;99.90
20829;DHT22;10575;50.124;8.582;2024-02-23T06:36:30;6.70;99.90
20829;DHT22;10575;50.124;8.582;2024-02-23T06:38:56;6.70;99.90
20829;DHT22;10575;50.124;8.582;2024-02-23T06:41:21;6.70;99.90
20829;DHT22;10575;50.124;8.582;2024-02-23T06:43:47;6.70;99.90
20829;DHT22;10575;50.124;8.582;2024-02-23T06:46:12;6.70;99.90
20829;DHT22;10575;50.124;8.582;2024-02-23T06:48:38;6.80;99.90
20829;DHT22;10575;50.124;8.582;2024-02-23T06:51:04;6.80;99.90
20829;DHT22;10575;50.124;8.582;2024-02-23T06:53:30;6.80;99.90
20829;DHT22;10575;50.124;8.582;2024-02-23T06:55:55;6.70;99.90
20829;DHT22;10575;50.124;8.582;2024-02-23T06:58:21;6.70;99.90
20829;DHT22;10575;50.124;8.582;2024-02-23T07:00:47;6.70;99.90
20829;DHT22;10575;50.124;8.582;2024-02-23T07:03:13;6.70;99.90
20829;DHT22;10575;50.124;8.582;2024-02-23T07:05:40;6.70;99.90
20829;DHT22;10575;50.124;8.582;2024-02-23T07:08:09;6.80;99.90
20829;DHT22;10575;50.124;8.582;2024-02-23T07:10:35;6.80;99.90
20829;DHT22;10575;50.124;8.582;2024-02-23T07:13:00;6.90;99.90
20829;DHT22;10575;50.124;8.582;2024-02-23T07:15:26;6.90;99.90
20829;DHT22;10575;50.124;8.582;2024-02-23T07:17:52;6.90;99.90
20829;DHT22;10575;50.124;8.582;2024-02-23T07:20:17;7.00;99.90
20829;DHT22;10575;50.124;8.582;2024-02-23T07:22:46;7.00;99.90
20829;DHT22;10575;50.124;8.582;2024-02-23T07:25:18;7.10;99.90
20829;DHT22;10575;50.124;8.582;2024-02-23T07:27:47;7.20;99.90
20829;DHT22;10575;50.124;8.582;2024-02-23T07:30:16;7.30;99.90
20829;DHT22;10575;50.124;8.582;2024-02-23T07:32:42;7.40;99.90
20829;DHT22;10575;50.124;8.582;2024-02-23T07:35:09;7.70;99.90
20829;DHT22;10575;50.124;8.582;2024-02-23T07:37:34;8.00;99.90
20829;DHT22;10575;50.124;8.582;2024-02-23T07:40:00;8.30;99.90
20829;DHT22;10575;50.124;8.582;2024-02-23T07:42:25;9.00;99.90
20829;DHT22;10575;50.124;8.582;2024-02-23T07:44:52;9.90;99.90
20829;DHT22;10575;50.124;8.582;2024-02-23T07:47:17;10.00;99.90
20829;DHT22;10575;50.124;8.582;2024-02-23T07:49:43;9.70;99.90
20829;DHT22;10575;50.124;8.582;2024-02-23T07:52:08;9.40;99.90
20829;DHT22;10575;50.124;8.582;2024-02-23T07:54:34;9.10;99.90
20829;DHT22;10575;50.124;8.582;2024-02-23T07:57:00;8.70;99.90
20829;DHT22;10575;50.124;8.582;2024-02-23T07:59:25;8.30;99.90
20829;DHT22;10575;50.124;8.582;2024-02-23T08:01:51;8.30;99.90
20829;DHT22;10575;50.124;8.582;2024-02-23T08:04:16;8.20;99.90
20829;DHT22;10575;50.124;8.582;2024-02-23T08:06:42;8.10;99.90
20829;DHT22;10575;50.124;8.582;2024-02-23T08:09:10;8.20;99.90
20829;DHT22;10575;50.124;8.582;2024-02-23T08:11:36;8.20;99.90
20829;DHT22;10575;50.124;8.582;2024-02-23T08:14:01;8.60;99.90
20829;DHT22;10575;50.124;8.582;2024-02-23T08:16:28;8.60;99.90
20829;DHT22;10575;50.124;8.582;2024-02-23T08:18:54;8.60;99.90
20829;DHT22;10575;50.124;8.582;2024-02-23T08:21:19;8.70;99.90
20829;DHT22;10575;50.124;8.582;2024-02-23T08:23:45;8.70;99.90
20829;DHT22;10575;50.124;8.582;2024-02-23T08:26:11;8.70;99.90
20829;DHT22;10575;50.124;8.582;2024-02-23T08:28:36;8.60;99.90
20829;DHT22;10575;50.124;8.582;2024-02-23T08:31:02;8.60;99.90
20829;DHT22;10575;50.124;8.582;2024-02-23T08:33:27;8.40;99.90
20829;DHT22;10575;50.124;8.582;2024-02-23T08:35:54;8.50;99.90
20829;DHT22;10575;50.124;8.582;2024-02-23T08:38:20;8.40;99.90
20829;DHT22;10575;50.124;8.582;2024-02-23T08:40:45;8.40;99.90
20829;DHT22;10575;50.124;8.582;2024-02-23T08:43:11;8.30;99.90
20829;DHT22;10575;50.124;8.582;2024-02-23T08:45:37;8.20;99.90
20829;DHT22;10575;50.124;8.582;2024-02-23T08:48:02;8.30;99.90
20829;DHT22;10575;50.124;8.582;2024-02-23T08:50:29;8.40;99.90
20829;DHT22;10575;50.124;8.582;2024-02-23T08:52:54;8.40;99.90
20829;DHT22;10575;50.124;8.582;2024-02-23T08:55:21;8.30;99.90
20829;DHT22;10575;50.124;8.582;2024-02-23T08:57:47;8.40;99.90
20829;DHT22;10575;50.124;8.582;2024-02-23T09:00:13;8.40;99.90
20829;DHT22;10575;50.124;8.582;2024-02-23T09:02:39;8.50;99.90
20829;DHT22;10575;50.124;8.582;2024-02-23T09:05:07;8.60;99.90
20829;DHT22;10575;50.124;8.582;2024-02-23T09:07:33;8.50;99.90
20829;DHT22;10575;50.124;8.582;2024-02-23T09:09:59;8.50;99.90
20829;DHT22;10575;50.124;8.582;2024-02-23T09:12:24;8.50;99.90
20829;DHT22;10575;50.124;8.582;2024-02-23T09:14:50;8.40;99.90
20829;DHT22;10575;50.124;8.582;2024-02-23T09:17:15;8.30;99.90
20829;DHT22;10575;50.124;8.582;2024-02-23T09:19:41;8.20;99.90
20829;DHT22;10575;50.124;8.582;2024-02-23T09:22:06;8.30;99.90
20829;DHT22;10575;50.124;8.582;2024-02-23T09:24:32;8.20;99.90
20829;DHT22;10575;50.124;8.582;2024-02-23T09:26:58;8.20;99.90
20829;DHT22;10575;50.124;8.582;2024-02-23T09:29:23;8.20;99.90
20829;DHT22;10575;50.124;8.582;2024-02-23T09:31:49;8.30;99.90
20829;DHT22;10575;50.124;8.582;2024-02-23T09:34:15;8.30;99.90
20829;DHT22;10575;50.124;8.582;2024-02-23T09:36:40;8.30;99.90
20829;DHT22;10575;50.124;8.582;2024-02-23T09:39:06;8.30;99.90
20829;DHT22;10575;50.124;8.582;2024-02-23T09:41:32;8.30;99.90
20829;DHT22;10575;50.124;8.582;2024-02-23T09:44:00;8.40;99.90
20829;DHT22;10575;50.124;8.582;2024-02-23T09:46:26;8.60;99.90
20829;DHT22;10575;50.124;8.582;2024-02-23T09:48:52;8.80;99.90
20829;DHT22;10575;50.124;8.582;2024-02-23T09:51:19;9.10;99.90
20829;DHT22;10575;50.124;8.582;2024-02-23T09:53:47;9.30;99.90
20829;DHT22;10575;50.124;8.582;2024-02-23T09:56:15;9.30;99.90
20829;DHT22;10575;50.124;8.582;2024-02-23T09:58:43;9.60;99.90
20829;DHT22;10575;50.124;8.582;2024-02-23T10:01:10;9.80;99.90
20829;DHT22;10575;50.124;8.582;2024-02-23T10:03:37;10.10;99.90
20829;DHT22;10575;50.124;8.582;2024-02-23T10:06:04;10.30;99.90
20829;DHT22;10575;50.124;8.582;2024-02-23T10:08:30;10.40;99.90
20829;DHT22;10575;50.124;8.582;2024-02-23T10:10:56;10.40;99.90
20829;DHT22;10575;50.124;8.582;2024-02-23T10:13:23;10.40;99.90
20829;DHT22;10575;50.124;8.582;2024-02-23T10:15:52;10.60;99.90
20829;DHT22;10575;50.124;8.582;2024-02-23T10:18:18;10.60;99.90
20829;DHT22;10575;50.124;8.582;2024-02-23T10:20:44;10.50;99.90
20829;DHT22;10575;50.124;8.582;2024-02-23T10:23:10;10.60;99.90
20829;DHT22;10575;50.124;8.582;2024-02-23T10:25:36;10.70;99.90
20829;DHT22;10575;50.124;8.582;2024-02-23T10:28:06;10.60;99.90
20829;DHT22;10575;50.124;8.582;2024-02-23T10:30:32;10.50;99.90
20829;DHT22;10575;50.124;8.582;2024-02-23T10:32:58;10.40;99.90
20829;DHT22;10575;50.124;8.582;2024-02-23T10:35:24;10.50;99.90
20829;DHT22;10575;50.124;8.582;2024-02-23T10:37:51;10.50;99.90
20829;DHT22;10575;50.124;8.582;2024-02-23T10:40:19;10.60;99.90
20829;DHT22;10575;50.124;8.582;2024-02-23T10:42:46;10.60;99.90
20829;DHT22;10575;50.124;8.582;2024-02-23T10:45:17;10.60;99.90
20829;DHT22;10575;50.124;8.582;2024-02-23T10:47:44;10.60;99.90
20829;DHT22;10575;50.124;8.582;2024-02-23T10:50:10;10.60;99.90
20829;DHT22;10575;50.124;8.582;2024-02-23T10:52:40;10.60;99.90
20829;DHT22;10575;50.124;8.582;2024-02-23T10:55:08;10.50;99.90
20829;DHT22;10575;50.124;8.582;2024-02-23T10:57:37;10.40;99.90
20829;DHT22;10575;50.124;8.582;2024-02-23T11:00:04;10.40;99.90
20829;DHT22;10575;50.124;8.582;2024-02-23T11:02:33;10.50;99.90
20829;DHT22;10575;50.124;8.582;2024-02-23T11:05:02;10.50;99.90
20829;DHT22;10575;50.124;8.582;2024-02-23T11:07:30;10.60;99.90
20829;DHT22;10575;50.124;8.582;2024-02-23T11:09:59;10.70;99.90
20829;DHT22;10575;50.124;8.582;2024-02-23T11:12:25;10.60;99.90
20829;DHT22;10575;50.124;8.582;2024-02-23T11:14:51;10.60;99.90
20829;DHT22;10575;50.124;8.582;2024-02-23T11:17:22;10.50;99.90
20829;DHT22;10575;50.124;8.582;2024-02-23T11:19:50;10.30;99.90
20829;DHT22;10575;50.124;8.582;2024-02-23T11:22:35;10.30;99.90
20829;DHT22;10575;50.124;8.582;2024-02-23T11:25:07;10.30;99.90
20829;DHT22;10575;50.124;8.582;2024-02-23T11:27:39;10.40;99.90
20829;DHT22;10575;50.124;8.582;2024-02-23T11:30:09;10.50;99.90
20829;DHT22;10575;50.124;8.582;2024-02-23T11:32:37;10.40;99.90
20829;DHT22;10575;50.124;8.582;2024-02-23T11:35:06;10.30;99.90
20829;DHT22;10575;50.124;8.582;2024-02-23T11:37:31;10.10;99.90
20829;DHT22;10575;50.124;8.582;2024-02-23T11:39:59;10.20;99.90
20829;DHT22;10575;50.124;8.582;2024-02-23T11:42:26;10.20;99.90
20829;DHT22;10575;50.124;8.582;2024-02-23T11:44:53;10.10;99.90
20829;DHT22;10575;50.124;8.582;2024-02-23T11:47:19;9.80;99.90
20829;DHT22;10575;50.124;8.582;2024-02-23T11:49:44;9.70;99.90
20829;DHT22;10575;50.124;8.582;2024-02-23T11:52:10;9.50;99.90
20829;DHT22;10575;50.124;8.582;2024-02-23T11:54:36;9.80;99.90
20829;DHT22;10575;50.124;8.582;2024-02-23T11:57:02;10.00;99.90
20829;DHT22;10575;50.124;8.582;2024-02-23T11:59:28;10.00;99.90
20829;DHT22;10575;50.124;8.582;2024-02-23T12:01:54;10.10;99.90
20829;DHT22;10575;50.124;8.582;2024-02-23T12:04:19;10.10;99.90
20829;DHT22;10575;50.124;8.582;2024-02-23T12:06:45;10.30;99.90
20829;DHT22;10575;50.124;8.582;2024-02-23T12:09:11;10.40;99.90
20829;DHT22;10575;50.124;8.582;2024-02-23T12:11:38;10.70;99.90
20829;DHT22;10575;50.124;8.582;2024-02-23T12:14:04;10.90;99.90
20829;DHT22;10575;50.124;8.582;2024-02-23T12:16:33;10.90;99.90
20829;DHT22;10575;50.124;8.582;2024-02-23T12:19:01;10.90;99.90
20829;DHT22;10575;50.124;8.582;2024-02-23T12:21:26;10.80;99.90
20829;DHT22;10575;50.124;8.582;2024-02-23T12:23:52;10.50;99.90
20829;DHT22;10575;50.124;8.582;2024-02-23T12:26:18;10.50;99.90
20829;DHT22;10575;50.124;8.582;2024-02-23T12:28:45;10.50;99.90
20829;DHT22;10575;50.124;8.582;2024-02-23T12:31:11;10.50;99.90
20829;DHT22;10575;50.124;8.582;2024-02-23T12:33:38;10.40;99.90
20829;DHT22;10575;50.124;8.582;2024-02-23T12:36:07;10.50;99.90
20829;DHT22;10575;50.124;8.582;2024-02-23T12:38:33;10.60;99.90
20829;DHT22;10575;50.124;8.582;2024-02-23T12:41:00;10.50;99.90
20829;DHT22;10575;50.124;8.582;2024-02-23T12:43:26;10.50;99.90
20829;DHT22;10575;50.124;8.582;2024-02-23T12:45:55;10.30;99.90
20829;DHT22;10575;50.124;8.582;2024-02-23T12:48:21;10.30;99.90
20829;DHT22;10575;50.124;8.582;2024-02-23T12:50:47;10.50;99.90
20829;DHT22;10575;50.124;8.582;2024-02-23T12:53:34;10.50;99.90
20829;DHT22;10575;50.124;8.582;2024-02-23T12:56:04;10.50;99.90
20829;DHT22;10575;50.124;8.582;2024-02-23T12:58:35;10.40;99.90
20829;DHT22;10575;50.124;8.582;2024-02-23T13:01:01;10.30;99.90
20829;DHT22;10575;50.124;8.582;2024-02-23T13:03:28;10.20;99.90
20829;DHT22;10575;50.124;8.582;2024-02-23T13:05:54;10.20;99.90
20829;DHT22;10575;50.124;8.582;2024-02-23T13:08:21;10.10;99.90
20829;DHT22;10575;50.124;8.582;2024-02-23T13:10:47;10.00;99.90
20829;DHT22;10575;50.124;8.582;2024-02-23T13:13:13;10.20;99.90
20829;DHT22;10575;50.124;8.582;2024-02-23T13:15:41;10.40;99.90
20829;DHT22;10575;50.124;8.582;2024-02-23T13:18:06;10.50;99.90
20829;DHT22;10575;50.124;8.582;2024-02-23T13:20:32;10.40;99.90
20829;DHT22;10575;50.124;8.582;2024-02-23T13:22:57;10.40;99.90
20829;DHT22;10575;50.124;8.582;2024-02-23T13:25:23;10.60;99.90
20829;DHT22;10575;50.124;8.582;2024-02-23T13:27:48;10.70;99.90
20829;DHT22;10575;50.124;8.582;2024-02-23T13:30:14;10.70;99.90
20829;DHT22;10575;50.124;8.582;2024-02-23T13:32:40;10.50;99.90
20829;DHT22;10575;50.124;8.582;2024-02-23T13:35:06;10.20;99.90
20829;DHT22;10575;50.124;8.582;2024-02-23T13:37:32;10.10;99.90
20829;DHT22;10575;50.124;8.582;2024-02-23T13:39:57;9.90;99.90
20829;DHT22;10575;50.124;8.582;2024-02-23T13:42:23;10.00;99.90
20829;DHT22;10575;50.124;8.582;2024-02-23T13:44:49;10.10;99.90
20829;DHT22;10575;50.124;8.582;2024-02-23T13:47:14;10.20;99.90
20829;DHT22;10575;50.124;8.582;2024-02-23T13:49:40;10.00;99.90
20829;DHT22;10575;50.124;8.582;2024-02-23T13:52:06;10.00;99.90
20829;DHT22;10575;50.124;8.582;2024-02-23T13:54:31;10.10;99.90
20829;DHT22;10575;50.124;8.582;2024-02-23T13:56:57;10.20;99.90
20829;DHT22;10575;50.124;8.582;2024-02-23T13:59:22;10.20;99.90
20829;DHT22;10575;50.124;8.582;2024-02-23T14:01:48;10.10;99.90
20829;DHT22;10575;50.124;8.582;2024-02-23T14:04:14;10.10;99.90
20829;DHT22;10575;50.124;8.582;2024-02-23T14:06:39;10.10;99.90
20829;DHT22;10575;50.124;8.582;2024-02-23T14:09:05;10.20;99.90
20829;DHT22;10575;50.124;8.582;2024-02-23T14:11:30;10.10;99.90
20829;DHT22;10575;50.124;8.582;2024-02-23T14:13:57;10.00;99.90
20829;DHT22;10575;50.124;8.582;2024-02-23T14:16:22;10.10;99.90
20829;DHT22;10575;50.124;8.582;2024-02-23T14:18:51;10.10;99.90
20829;DHT22;10575;50.124;8.582;2024-02-23T14:21:16;10.00;99.90
20829;DHT22;10575;50.124;8.582;2024-02-23T14:23:43;10.10;99.90
20829;DHT22;10575;50.124;8.582;2024-02-23T14:26:09;10.20;99.90
20829;DHT22;10575;50.124;8.582;2024-02-23T14:28:35;10.40;99.90
20829;DHT22;10575;50.124;8.582;2024-02-23T14:31:00;10.50;99.90
20829;DHT22;10575;50.124;8.582;2024-02-23T14:33:26;10.50;99.90
20829;DHT22;10575;50.124;8.582;2024-02-23T14:35:51;10.60;99.90
20829;DHT22;10575;50.124;8.582;2024-02-23T14:38:17;10.50;99.90
20829;DHT22;10575;50.124;8.582;2024-02-23T14:40:43;10.60;99.90
20829;DHT22;10575;50.124;8.582;2024-02-23T14:43:08;10.50;99.90
20829;DHT22;10575;50.124;8.582;2024-02-23T14:45:35;10.50;99.90
20829;DHT22;10575;50.124;8.582;2024-02-23T14:48:00;10.50;99.90
20829;DHT22;10575;50.124;8.582;2024-02-23T14:50:26;10.50;99.90
20829;DHT22;10575;50.124;8.582;2024-02-23T14:52:52;10.40;99.90
20829;DHT22;10575;50.124;8.582;2024-02-23T14:55:17;10.50;99.90
20829;DHT22;10575;50.124;8.582;2024-02-23T14:57:43;10.60;99.90
20829;DHT22;10575;50.124;8.582;2024-02-23T15:00:09;10.70;99.90
20829;DHT22;10575;50.124;8.582;2024-02-23T15:02:35;10.70;99.90
20829;DHT22;10575;50.124;8.582;2024-02-23T15:05:00;10.80;99.90
20829;DHT22;10575;50.124;8.582;2024-02-23T15:07:26;10.90;99.90
20829;DHT22;10575;50.124;8.582;2024-02-23T15:09:53;11.10;99.90
20829;DHT22;10575;50.124;8.582;2024-02-23T15:12:19;11.00;99.90
20829;DHT22;10575;50.124;8.582;2024-02-23T15:14:47;10.80;99.90
20829;DHT22;10575;50.124;8.582;2024-02-23T15:17:12;10.50;99.90
20829;DHT22;10575;50.124;8.582;2024-02-23T15:19:38;10.40;99.90
20829;DHT22;10575;50.124;8.582;2024-02-23T15:22:04;10.10;99.90
20829;DHT22;10575;50.124;8.582;2024-02-23T15:24:30;10.00;99.90
20829;DHT22;10575;50.124;8.582;2024-02-23T15:26:56;9.80;99.90
20829;DHT22;10575;50.124;8.582;2024-02-23T15:29:21;9.80;99.90
20829;DHT22;10575;50.124;8.582;2024-02-23T15:31:47;9.70;99.90
20829;DHT22;10575;50.124;8.582;2024-02-23T15:34:12;9.70;99.90